Flight Number: EUR1196 Duration: 3:00
Departure: Paris Charles-de-Gaulle (LFPG) at 03:00 Distance: 1138 Nm
Arrival: Athens Int'l (LGAV) at 06:00 Equipment: A330-200

Weather Information
404 Not Found

Not Found

The requested URL /data/observations/metar/decoded/LFPG.TXT was not found on this server.


Sunrise: 04:00 Sunset: 19:32 (UTC)

Athens Eleftherios Venizelos International Airport, Greece (LGAV) 37-56N 023-56E May 23, 2018 - 07:50 PM EDT / 2018.05.23 2350 UTC
Wind: Variable at 1 MPH (1 KT):0
Visibility: greater than 7 mile(s):0 Temperature: 57 F (14 C) Dew Point: 51 F (11 C) Relative Humidity: 82% Pressure (altimeter): 29.94 in. Hg (1014 hPa)
ob: LGAV 232350Z VRB01KT CAVOK 14/11 Q1014 NOSIG cycle: 0
Sunrise: 03:10 Sunset: 17:31 (UTC)

TAF:2018/05/23 18:12 TAF TAF LGAV 231700Z 2318/2418 VRB05KT 9999 FEW030 BECMG 2407/2409 03013KT PROB30 TEMPO 2410/2417 5000 SHRA FEW018CB SCT020 BKN070

Previous Pireps for this route
Date Aircraft Flight time Fuel used Landing rate On time
2016-01-18A330-20003.16650000Yes
2018-04-27A330-20002.5655682-150No
(pireps marked green are flown by you)

Route map